Time;durP1;ratioP1;P1;durP2;ratioP2;P2;SDS_P1;SDS_P2;PMS_P1;PMS_P2;Temp;Humidity;BMP_temperature;BMP_pressure;BME280_temperature;BME280_humidity;BME280_pressure;Samples;Min_cycle;Max_cycle;Signal;HPM_P1;HPM_P2
2022/05/24 00:01:04;;;;;;;6.35;3.65;;;;;;;18.44;59.93;94146.31;5026062;28;20240;-81
2022/05/24 00:03:31;;;;;;;3.40;3.05;;;;;;;18.38;60.24;94147.88;5023928;28;20208;-81
2022/05/24 00:05:58;;;;;;;6.57;3.60;;;;;;;18.04;60.99;94138.38;5019139;28;20247;-83
2022/05/24 00:08:26;;;;;;;4.88;3.70;;;;;;;17.91;61.50;94137.13;5021133;28;20201;-80
2022/05/24 00:10:54;;;;;;;7.47;3.75;;;;;;;17.81;62.50;94135.94;5025791;28;20270;-81
2022/05/24 00:13:22;;;;;;;4.95;3.38;;;;;;;17.64;62.33;94137.41;5024599;28;20204;-80
2022/05/24 00:15:49;;;;;;;4.25;2.78;;;;;;;17.51;63.22;94138.88;5019255;28;20204;-82
2022/05/24 00:18:19;;;;;;;3.78;2.95;;;;;;;17.20;64.09;94131.28;5019964;28;20212;-82
2022/05/24 00:20:48;;;;;;;4.47;2.97;;;;;;;16.99;64.50;94140.13;5025521;28;20568;-81
2022/05/24 00:23:16;;;;;;;7.18;3.60;;;;;;;16.81;65.38;94134.50;5024954;28;20270;-80
2022/05/24 00:25:48;;;;;;;7.75;3.03;;;;;;;16.59;67.15;94139.00;5019073;28;20293;-78
2022/05/24 00:28:16;;;;;;;5.03;3.10;;;;;;;16.27;67.61;94149.63;5031880;28;20225;-78
2022/05/24 00:30:45;;;;;;;3.80;3.00;;;;;;;16.04;68.56;94157.19;5024291;28;20239;-81
2022/05/24 00:33:14;;;;;;;4.78;3.20;;;;;;;15.93;69.69;94151.63;5024907;28;20200;-82
2022/05/24 00:35:41;;;;;;;5.50;3.38;;;;;;;15.83;69.82;94159.69;5021478;28;20212;-77
2022/05/24 00:38:13;;;;;;;4.15;3.00;;;;;;;15.80;68.78;94157.69;5030742;28;20239;-79
2022/05/24 00:40:50;;;;;;;5.13;3.00;;;;;;;15.73;68.80;94158.38;5030850;28;20216;-80
2022/05/24 00:43:25;;;;;;;3.78;2.72;;;;;;;15.71;69.71;94159.94;5018643;28;20232;-80
2022/05/24 00:45:56;;;;;;;4.57;3.05;;;;;;;15.76;70.11;94156.84;5019197;28;20290;-80
2022/05/24 00:48:27;;;;;;;4.55;2.85;;;;;;;15.88;69.95;94159.34;5024922;28;20763;-79
2022/05/24 00:50:54;;;;;;;3.80;3.30;;;;;;;16.06;69.43;94160.34;5024796;28;20257;-79
2022/05/24 00:53:26;;;;;;;4.65;2.50;;;;;;;16.05;68.73;94164.22;5018873;28;20739;-79
2022/05/24 00:56:02;;;;;;;4.43;2.65;;;;;;;16.07;66.58;94161.13;5030024;28;20232;-80
2022/05/24 00:58:38;;;;;;;3.03;2.42;;;;;;;15.96;66.66;94153.59;5021480;28;20869;-80
2022/05/24 01:01:22;;;;;;;4.43;2.33;;;;;;;15.89;67.05;94164.44;5018520;28;20219;-79
2022/05/24 01:03:49;;;;;;;6.28;2.90;;;;;;;15.90;67.31;94167.97;5018581;28;20813;-80
2022/05/24 01:06:16;;;;;;;4.35;2.78;;;;;;;15.96;67.45;94164.53;5018474;28;20208;-80
2022/05/24 01:08:43;;;;;;;4.00;2.83;;;;;;;15.98;67.74;94175.09;5031309;28;20690;-79
2022/05/24 01:11:13;;;;;;;3.38;2.55;;;;;;;15.89;67.82;94166.38;5024837;28;20691;-82
2022/05/24 01:13:41;;;;;;;4.72;3.05;;;;;;;15.87;67.58;94163.22;5025137;28;20212;-80
2022/05/24 01:16:08;;;;;;;3.67;2.50;;;;;;;15.87;67.77;94174.16;5018989;28;20196;-81
2022/05/24 01:18:36;;;;;;;2.97;2.60;;;;;;;15.85;67.47;94165.56;5018175;28;20209;-81
2022/05/24 01:21:05;;;;;;;5.47;2.72;;;;;;;15.87;66.78;94166.75;5022848;28;20722;-80
2022/05/24 01:23:43;;;;;;;2.95;2.42;;;;;;;15.88;67.12;94159.34;5024429;28;20613;-80
2022/05/24 01:26:16;;;;;;;2.50;2.30;;;;;;;15.80;67.41;94174.88;5020903;28;20228;-79
2022/05/24 01:28:49;;;;;;;2.83;2.33;;;;;;;15.68;67.79;94168.88;5017889;28;20192;-80
2022/05/24 01:31:16;;;;;;;4.00;2.63;;;;;;;15.79;67.29;94167.03;5019557;28;20193;-80
2022/05/24 01:36:32;;;;;;;3.25;2.35;;;;;;;15.87;66.99;94158.56;5028958;28;20298;-79
2022/05/24 01:39:02;;;;;;;4.18;2.20;;;;;;;15.84;67.23;94153.84;5020694;28;20233;-79
2022/05/24 01:41:34;;;;;;;4.65;2.60;;;;;;;15.88;66.78;94142.94;5017794;28;20244;-79
2022/05/24 01:44:03;;;;;;;5.57;2.60;;;;;;;15.78;67.13;94151.81;5020493;28;20194;-80
2022/05/24 01:46:35;;;;;;;3.75;2.60;;;;;;;15.58;67.96;94157.41;5024370;28;20228;-79
2022/05/24 01:49:07;;;;;;;8.25;2.88;;;;;;;15.47;68.53;94145.53;5023176;28;20220;-79
2022/05/24 01:51:39;;;;;;;8.65;2.75;;;;;;;15.41;69.27;94152.50;5011556;28;20231;-80
2022/05/24 01:54:08;;;;;;;6.30;2.78;;;;;;;15.45;68.85;94152.53;5024347;28;20197;-79
2022/05/24 01:56:41;;;;;;;4.80;3.17;;;;;;;15.53;68.59;94155.00;5017357;28;20228;-80
2022/05/24 01:59:10;;;;;;;4.90;2.50;;;;;;;15.57;68.32;94160.53;5017715;28;20247;-81
2022/05/24 02:01:44;;;;;;;4.90;2.88;;;;;;;15.54;68.45;94167.50;5022267;28;20228;-79
2022/05/24 02:04:10;;;;;;;4.65;3.33;;;;;;;15.58;68.65;94171.06;5024164;28;20240;-80
2022/05/24 02:06:38;;;;;;;5.30;2.75;;;;;;;15.57;68.48;94166.78;5020525;28;20196;-80
2022/05/24 02:09:06;;;;;;;4.40;2.97;;;;;;;15.55;68.86;94169.09;5017532;28;20216;-79
2022/05/24 02:11:34;;;;;;;4.13;2.88;;;;;;;15.45;69.21;94175.16;5020962;28;20196;-80
2022/05/24 02:14:07;;;;;;;5.05;3.08;;;;;;;15.41;69.44;94168.88;5024584;28;20212;-79
2022/05/24 02:16:40;;;;;;;4.35;3.00;;;;;;;15.56;69.56;94175.34;5022079;28;20197;-79
2022/05/24 02:19:08;;;;;;;5.13;2.47;;;;;;;15.55;69.83;94171.81;5017433;28;20258;-79
2022/05/24 02:21:38;;;;;;;7.28;2.90;;;;;;;15.68;69.60;94177.06;5019145;28;20233;-80
2022/05/24 02:24:16;;;;;;;5.82;3.00;;;;;;;15.67;69.78;94180.94;5016351;28;20235;-80
2022/05/24 02:26:43;;;;;;;5.70;3.13;;;;;;;15.56;69.73;94170.69;5017182;28;20225;-80
2022/05/24 02:29:10;;;;;;;4.05;3.05;;;;;;;15.54;69.74;94162.03;5022919;28;20205;-80
2022/05/24 02:31:38;;;;;;;4.20;3.00;;;;;;;15.69;69.40;94151.31;5023958;28;20697;-80
2022/05/24 02:34:05;;;;;;;4.40;3.40;;;;;;;15.68;70.34;94133.38;5018068;28;20660;-80
2022/05/24 02:36:32;;;;;;;4.80;2.90;;;;;;;15.62;70.64;94135.63;5017985;28;20255;-79
2022/05/24 02:38:59;;;;;;;6.13;3.30;;;;;;;15.64;69.93;94145.03;5020510;28;20292;-81
2022/05/24 02:41:31;;;;;;;5.15;3.30;;;;;;;15.66;70.20;94162.97;5026926;28;20314;-81
2022/05/24 02:44:05;;;;;;;7.22;3.88;;;;;;;15.59;70.42;94171.84;5030386;28;20197;-78
2022/05/24 02:46:34;;;;;;;9.35;3.10;;;;;;;15.51;71.02;94179.16;5016698;28;20236;-81
2022/05/24 02:49:03;;;;;;;11.77;3.60;;;;;;;15.48;71.08;94185.34;5017843;28;20232;-78
2022/05/24 02:51:30;;;;;;;5.50;3.70;;;;;;;15.44;71.58;94189.19;5028927;28;20227;-80
2022/05/24 02:53:57;;;;;;;6.55;3.55;;;;;;;15.37;72.04;94184.41;5017439;28;20201;-77
2022/05/24 02:56:25;;;;;;;4.57;3.33;;;;;;;15.40;71.83;94183.69;5024777;28;20212;-79
2022/05/24 02:58:51;;;;;;;7.28;3.22;;;;;;;15.49;71.77;94176.00;5026422;28;20208;-79
2022/05/24 03:01:24;;;;;;;5.65;2.80;;;;;;;15.51;71.66;94179.16;5020270;28;20231;-80
2022/05/24 03:03:53;;;;;;;6.30;3.55;;;;;;;15.60;71.36;94181.63;5034091;28;20185;-80
2022/05/24 03:06:23;;;;;;;7.07;2.92;;;;;;;15.63;71.42;94192.59;5021590;28;20564;-81
2022/05/24 03:14:16;;;;;;;6.65;3.55;;;;;;;15.70;71.35;94180.22;5028112;28;20201;-80
2022/05/24 03:16:46;;;;;;;6.00;3.25;;;;;;;15.93;71.50;94183.59;5026409;28;20215;-81
2022/05/24 03:19:13;;;;;;;4.32;3.20;;;;;;;15.96;71.28;94191.06;5033639;28;20208;-80
2022/05/24 03:21:43;;;;;;;5.18;3.50;;;;;;;15.97;71.12;94184.44;5032928;28;20754;-81
2022/05/24 03:24:10;;;;;;;8.10;3.15;;;;;;;16.03;71.12;94184.88;5013471;28;20275;-80
2022/05/24 03:26:37;;;;;;;3.38;2.85;;;;;;;16.25;70.13;94179.31;5027428;28;20270;-80
2022/05/24 03:29:04;;;;;;;4.85;3.25;;;;;;;16.38;69.57;94160.69;5027184;28;20543;-80
2022/05/24 03:31:31;;;;;;;3.58;2.90;;;;;;;16.37;69.60;94166.53;5024097;28;20213;-80
2022/05/24 03:33:58;;;;;;;7.07;3.65;;;;;;;16.16;69.98;94175.28;5033598;28;20221;-80
2022/05/24 03:36:25;;;;;;;3.15;2.85;;;;;;;16.22;70.62;94171.84;5020636;28;20259;-80
2022/05/24 03:38:53;;;;;;;5.85;3.50;;;;;;;16.25;70.19;94183.97;5024838;28;20204;-80
2022/05/24 03:41:20;;;;;;;4.55;2.90;;;;;;;16.40;69.61;94174.00;5028320;28;20204;-81
2022/05/24 03:43:47;;;;;;;6.43;3.22;;;;;;;16.50;68.79;94178.78;5040052;28;20308;-80
2022/05/24 03:46:14;;;;;;;4.82;3.30;;;;;;;16.56;68.24;94172.56;5037232;28;20232;-80
2022/05/24 03:48:42;;;;;;;6.22;3.05;;;;;;;16.56;68.44;94186.25;5023568;28;20225;-80
2022/05/24 03:51:09;;;;;;;6.78;3.72;;;;;;;16.82;67.99;94168.91;5026266;28;20207;-80
2022/05/24 03:53:36;;;;;;;4.97;3.30;;;;;;;17.21;66.77;94180.19;5022065;28;20224;-80
2022/05/24 03:56:05;;;;;;;6.82;4.10;;;;;;;17.62;65.70;94172.63;5029953;28;20209;-81
2022/05/24 03:58:31;;;;;;;6.55;4.60;;;;;;;18.29;63.07;94183.13;5022767;28;20212;-80
2022/05/24 04:00:59;;;;;;;10.90;4.63;;;;;;;18.45;62.55;94180.00;5018205;28;20726;-81
2022/05/24 04:03:26;;;;;;;7.35;3.58;;;;;;;18.54;61.72;94182.38;5023038;28;20232;-80
2022/05/24 04:05:53;;;;;;;11.05;4.47;;;;;;;18.41;61.76;94174.53;5026513;28;20201;-82
2022/05/24 04:08:24;;;;;;;6.85;3.97;;;;;;;18.61;61.45;94187.91;5012626;28;20212;-80
2022/05/24 04:10:52;;;;;;;10.35;3.90;;;;;;;18.88;61.60;94185.59;5026360;28;20196;-81
2022/05/24 04:13:20;;;;;;;6.15;3.90;;;;;;;19.21;59.81;94192.66;5023927;28;20290;-81
2022/05/24 04:15:47;;;;;;;7.18;3.95;;;;;;;18.45;62.02;94197.25;5018549;28;20204;-80
2022/05/24 04:18:14;;;;;;;8.38;4.38;;;;;;;18.04;63.33;94210.41;5020622;28;20275;-80
2022/05/24 04:20:40;;;;;;;10.98;4.80;;;;;;;17.63;64.25;94196.13;5025769;28;20217;-81
2022/05/24 04:23:12;;;;;;;8.30;4.43;;;;;;;17.57;64.87;94197.63;5012547;28;20385;-81
2022/05/24 04:25:39;;;;;;;5.35;3.90;;;;;;;17.47;64.83;94195.63;5018423;28;20295;-81
2022/05/24 04:28:06;;;;;;;8.30;4.45;;;;;;;18.05;63.65;94194.75;5032657;28;20205;-82
2022/05/24 04:30:37;;;;;;;7.60;3.80;;;;;;;18.87;61.16;94189.50;5032368;28;20208;-80
2022/05/24 04:33:04;;;;;;;4.85;3.75;;;;;;;20.13;58.66;94187.00;5031251;28;20224;-81
2022/05/24 04:35:31;;;;;;;5.43;3.50;;;;;;;20.43;57.13;94184.53;5032135;28;20208;-81
2022/05/24 04:38:00;;;;;;;6.60;3.72;;;;;;;20.65;55.73;94179.69;5032166;28;20204;-82
2022/05/24 04:43:07;;;;;;;8.27;4.57;;;;;;;20.08;57.01;94181.94;5022547;28;20216;-83
2022/05/24 04:45:36;;;;;;;9.00;4.70;;;;;;;19.94;57.16;94179.22;5042211;28;20228;-87
2022/05/24 04:48:05;;;;;;;12.43;4.40;;;;;;;20.45;56.18;94171.16;5027931;28;20726;-81
2022/05/24 04:50:32;;;;;;;8.07;3.90;;;;;;;20.80;55.12;94170.16;5023084;28;20231;-82
2022/05/24 04:52:59;;;;;;;10.10;4.70;;;;;;;21.70;52.78;94164.72;5013777;28;20226;-81
2022/05/24 04:55:28;;;;;;;7.55;4.75;;;;;;;21.30;53.15;94180.06;5023285;28;20200;-81
2022/05/24 04:57:55;;;;;;;10.05;5.03;;;;;;;21.64;52.77;94183.66;5018149;28;20224;-83
2022/05/24 05:00:23;;;;;;;7.95;4.57;;;;;;;21.08;54.00;94182.94;5020013;28;20221;-80
2022/05/24 05:02:52;;;;;;;8.30;4.78;;;;;;;20.83;54.63;94201.59;5025106;28;20247;-84
2022/05/24 05:05:19;;;;;;;7.90;4.57;;;;;;;21.50;53.30;94200.31;5027021;28;20197;-83
2022/05/24 05:07:46;;;;;;;12.82;4.78;;;;;;;21.81;52.40;94203.97;5018436;28;20209;-82
2022/05/24 05:10:14;;;;;;;7.47;4.75;;;;;;;21.89;51.72;94209.00;5036733;28;20219;-79
2022/05/24 05:12:40;;;;;;;8.77;4.40;;;;;;;21.67;52.26;94201.34;5031698;28;20256;-82
2022/05/24 05:15:08;;;;;;;7.55;4.28;;;;;;;22.56;50.25;94210.22;5031888;28;20200;-82
2022/05/24 05:17:35;;;;;;;6.35;4.25;;;;;;;23.93;47.35;94200.22;5018139;28;20235;-84
2022/05/24 05:20:05;;;;;;;5.68;4.72;;;;;;;23.86;46.33;94205.91;5030908;28;20219;-82
2022/05/24 05:22:31;;;;;;;8.75;5.28;;;;;;;23.42;46.99;94211.78;5018369;28;20243;-81
2022/05/24 05:24:58;;;;;;;11.75;4.97;;;;;;;23.13;47.80;94216.97;5031401;28;20196;-84
2022/05/24 05:27:25;;;;;;;7.18;4.45;;;;;;;22.55;49.38;94208.66;5030608;28;20847;-78
2022/05/24 05:32:37;;;;;;;6.88;4.53;;;;;;;21.61;52.23;94228.56;5021378;28;20228;-82
2022/05/24 05:35:07;;;;;;;7.65;4.40;;;;;;;22.15;51.33;94223.34;5024264;28;20201;-83
2022/05/24 05:37:34;;;;;;;5.05;3.95;;;;;;;23.84;48.57;94213.84;5028894;28;20204;-81
2022/05/24 05:40:02;;;;;;;7.72;4.47;;;;;;;24.91;45.40;94214.50;5030932;28;20200;-81
2022/05/24 05:42:28;;;;;;;5.85;4.22;;;;;;;25.18;43.62;94226.19;5030513;28;20659;-82
2022/05/24 05:44:55;;;;;;;6.38;4.25;;;;;;;25.10;44.27;94227.59;5047419;28;20196;-83
2022/05/24 05:47:22;;;;;;;7.55;4.30;;;;;;;26.07;42.20;94216.50;5039221;28;20236;-84
2022/05/24 05:49:49;;;;;;;6.90;4.03;;;;;;;26.67;40.89;94216.84;5026259;28;20209;-80
2022/05/24 05:52:17;;;;;;;7.38;4.13;;;;;;;28.01;38.44;94211.09;5022309;28;20232;-79
2022/05/24 05:54:44;;;;;;;5.07;3.90;;;;;;;27.61;38.56;94218.41;5030645;28;20699;-80
2022/05/24 05:57:12;;;;;;;7.72;4.28;;;;;;;27.89;38.23;94209.09;5019432;28;20209;-80
2022/05/24 05:59:38;;;;;;;7.97;4.32;;;;;;;27.77;37.88;94218.25;5015414;28;20718;-80
2022/05/24 06:02:06;;;;;;;6.28;4.38;;;;;;;27.01;40.12;94229.41;5027208;28;20808;-80
2022/05/24 06:04:33;;;;;;;9.25;4.18;;;;;;;28.19;37.60;94228.00;5030286;28;20196;-81
2022/05/24 06:07:00;;;;;;;6.95;4.20;;;;;;;28.17;37.46;94224.84;5017984;28;20215;-78
2022/05/24 06:09:29;;;;;;;6.95;4.80;;;;;;;27.41;39.34;94233.31;5024241;28;20205;-76
2022/05/24 06:11:56;;;;;;;7.45;4.63;;;;;;;26.73;39.89;94254.00;5023474;28;20208;-80
2022/05/24 06:14:22;;;;;;;6.47;4.68;;;;;;;25.07;43.02;94253.38;5016024;28;20204;-81
2022/05/24 06:16:49;;;;;;;7.72;4.80;;;;;;;25.36;42.38;94254.31;5025724;28;20287;-79
2022/05/24 06:19:16;;;;;;;8.02;5.00;;;;;;;26.42;41.01;94256.44;5021618;28;20217;-79
2022/05/24 06:21:43;;;;;;;7.35;4.72;;;;;;;26.94;39.19;94251.84;5025361;28;20216;-80
2022/05/24 06:24:10;;;;;;;7.45;4.57;;;;;;;28.24;37.45;94252.50;5017293;28;20238;-79
2022/05/24 06:26:38;;;;;;;6.32;4.03;;;;;;;30.31;34.34;94240.59;5030073;28;20205;-83
2022/05/24 06:29:06;;;;;;;10.63;4.82;;;;;;;29.57;35.43;94250.00;5016500;28;20698;-82
2022/05/24 06:31:33;;;;;;;8.02;4.40;;;;;;;28.84;36.80;94238.41;5028195;28;20224;-87
2022/05/24 06:34:00;;;;;;;7.53;5.20;;;;;;;30.10;34.31;94238.69;5030179;28;20275;-80
2022/05/24 06:36:27;;;;;;;6.63;4.78;;;;;;;31.11;33.66;94216.31;5022795;28;20193;-85
2022/05/24 06:38:54;;;;;;;8.35;4.82;;;;;;;31.24;32.98;94216.91;5033763;28;20192;-90
2022/05/24 06:41:20;;;;;;;6.60;4.78;;;;;;;31.73;31.91;94203.34;5021475;28;20222;-88
2022/05/24 06:43:49;;;;;;;7.28;5.07;;;;;;;31.09;33.05;94214.78;5040025;28;20219;-80
2022/05/24 06:46:15;;;;;;;5.75;5.03;;;;;;;29.61;34.49;94217.13;5036652;28;20244;-81
2022/05/24 06:48:43;;;;;;;8.45;4.90;;;;;;;28.17;37.52;94208.13;5033158;28;20212;-79
2022/05/24 06:51:12;;;;;;;7.47;5.35;;;;;;;29.44;34.70;94207.47;5032388;28;20248;-81
2022/05/24 06:53:39;;;;;;;7.95;5.30;;;;;;;29.76;35.06;94205.38;5027553;28;20205;-85
2022/05/24 06:56:07;;;;;;;7.18;4.80;;;;;;;29.68;34.87;94211.25;5030349;28;20292;-88
2022/05/24 06:58:34;;;;;;;8.63;4.97;;;;;;;29.21;35.62;94205.16;5032694;28;20227;-83
2022/05/24 07:03:47;;;;;;;9.55;4.57;;;;;;;31.33;32.61;94200.06;5031389;28;20220;-85
2022/05/24 07:06:15;;;;;;;6.57;4.68;;;;;;;31.30;32.70;94207.38;5029157;28;20232;-84
2022/05/24 07:08:43;;;;;;;7.60;5.10;;;;;;;29.53;35.57;94215.84;5029242;28;20536;-84
2022/05/24 07:11:10;;;;;;;8.27;5.13;;;;;;;28.95;35.96;94205.34;5030435;28;20203;-81
2022/05/24 07:13:37;;;;;;;10.30;4.97;;;;;;;29.62;35.27;94210.31;5033057;28;20706;-80
2022/05/24 07:16:07;;;;;;;9.48;4.97;;;;;;;29.48;35.42;94210.88;5027153;28;20201;-85
2022/05/24 07:18:34;;;;;;;7.55;4.90;;;;;;;29.61;35.35;94217.13;5030393;28;20220;-82
2022/05/24 07:21:01;;;;;;;7.32;5.10;;;;;;;28.71;35.81;94218.16;5031191;28;20868;-84
2022/05/24 07:23:28;;;;;;;7.80;4.70;;;;;;;27.81;37.41;94230.84;5020089;28;20216;-80
2022/05/24 07:26:06;;;;;;;6.80;4.97;;;;;;;26.89;39.58;94234.47;5031069;28;20204;-87
2022/05/24 07:28:35;;;;;;;7.35;4.53;;;;;;;25.97;40.52;94228.66;5030279;28;20203;-85
2022/05/24 07:31:03;;;;;;;8.88;4.93;;;;;;;27.33;38.30;94217.28;5029446;28;20222;-86
2022/05/24 07:33:32;;;;;;;8.20;5.30;;;;;;;28.11;37.29;94221.09;5030932;28;20208;-82
2022/05/24 07:35:59;;;;;;;5.93;4.75;;;;;;;28.68;35.79;94216.31;5030413;28;20216;-87
2022/05/24 07:38:26;;;;;;;7.65;4.93;;;;;;;29.04;35.77;94217.78;5030044;28;20216;-89
2022/05/24 07:46:27;;;;;;;9.77;5.00;;;;;;;28.69;36.56;94209.50;5029810;28;20239;-80
2022/05/24 07:48:55;;;;;;;8.18;4.60;;;;;;;27.04;39.68;94217.41;5032616;28;20212;-81
2022/05/24 07:51:22;;;;;;;8.55;4.75;;;;;;;27.45;38.91;94217.28;5027074;28;20197;-82
2022/05/24 07:53:49;;;;;;;9.60;5.00;;;;;;;26.06;41.79;94214.16;5028203;28;20254;-84
2022/05/24 07:56:18;;;;;;;7.10;4.72;;;;;;;26.98;40.65;94224.72;5030830;28;20232;-83
2022/05/24 07:58:46;;;;;;;7.00;4.43;;;;;;;27.20;40.94;94214.50;5028403;28;20626;-85
2022/05/24 08:01:12;;;;;;;5.70;4.68;;;;;;;27.36;39.69;94211.59;5033214;28;20224;-76
2022/05/24 08:03:39;;;;;;;6.72;5.35;;;;;;;27.46;39.92;94206.94;5026958;28;20232;-77
2022/05/24 08:06:09;;;;;;;7.75;4.70;;;;;;;27.88;39.24;94190.88;5026461;28;20300;-78
2022/05/24 08:08:35;;;;;;;7.32;5.18;;;;;;;26.90;40.13;94207.44;5025122;28;20201;-83
2022/05/24 08:11:02;;;;;;;8.07;5.85;;;;;;;27.02;39.80;94203.16;5029233;28;20714;-79
2022/05/24 08:13:29;;;;;;;6.93;4.60;;;;;;;27.39;40.79;94209.94;5018770;28;20613;-76
2022/05/24 08:15:57;;;;;;;6.35;4.43;;;;;;;27.46;40.35;94206.94;5030742;28;20295;-80
2022/05/24 08:18:25;;;;;;;9.52;4.88;;;;;;;26.96;41.24;94216.03;5016751;28;20259;-78
2022/05/24 08:20:52;;;;;;;6.60;5.10;;;;;;;26.07;41.78;94224.84;5016786;28;20204;-76
2022/05/24 08:23:22;;;;;;;8.75;5.43;;;;;;;26.36;42.06;94204.66;5029845;28;20236;-79
2022/05/24 08:25:48;;;;;;;6.57;4.53;;;;;;;26.61;41.70;94207.50;5030051;28;20215;-82
2022/05/24 08:28:15;;;;;;;11.25;5.28;;;;;;;27.10;41.30;94215.59;5031548;28;20220;-82
2022/05/24 08:30:43;;;;;;;7.90;5.00;;;;;;;27.11;41.08;94203.25;5030946;28;20675;-79
2022/05/24 08:33:13;;;;;;;8.43;5.35;;;;;;;26.11;42.98;94214.38;5028038;28;20247;-80
2022/05/24 08:35:40;;;;;;;9.38;5.32;;;;;;;25.46;44.40;94214.44;5028512;28;20567;-80
2022/05/24 08:38:08;;;;;;;10.05;5.40;;;;;;;26.26;42.54;94202.91;5022394;28;20200;-81
2022/05/24 08:40:39;;;;;;;6.97;5.07;;;;;;;27.02;41.38;94208.72;5024177;28;20630;-85
2022/05/24 08:43:21;;;;;;;7.93;5.40;;;;;;;26.99;42.04;94198.47;5032901;28;20208;-81
2022/05/24 08:48:41;;;;;;;9.38;4.78;;;;;;;27.37;40.69;94202.03;5030572;28;20235;-82
2022/05/24 08:51:13;;;;;;;8.35;5.05;;;;;;;27.28;41.01;94215.84;5030501;28;20195;-79
2022/05/24 08:53:43;;;;;;;8.23;4.72;;;;;;;26.65;43.20;94208.16;5025024;28;20667;-78
2022/05/24 08:56:16;;;;;;;10.05;4.88;;;;;;;25.89;44.33;94213.41;5025162;28;20250;-81
2022/05/24 08:58:45;;;;;;;6.97;5.18;;;;;;;25.68;44.68;94225.06;5023936;28;20247;-86
2022/05/24 09:01:17;;;;;;;7.75;5.07;;;;;;;25.74;44.94;94215.75;5029296;28;20200;-82
2022/05/24 09:03:45;;;;;;;6.40;4.75;;;;;;;25.77;45.49;94222.44;5032590;28;20228;-85
2022/05/24 09:06:18;;;;;;;7.45;5.35;;;;;;;25.41;45.11;94228.84;5031638;28;20223;-81
2022/05/24 09:08:56;;;;;;;6.72;4.85;;;;;;;26.02;43.70;94219.78;5030051;28;20254;-85
2022/05/24 09:11:45;;;;;;;5.65;5.03;;;;;;;26.38;43.95;94227.19;5019626;28;20232;-81
2022/05/24 09:14:14;;;;;;;9.15;5.25;;;;;;;26.73;42.75;94211.53;5030782;28;20248;-83
2022/05/24 09:16:54;;;;;;;7.32;4.53;;;;;;;26.84;43.19;94200.88;5018882;28;20225;-83
2022/05/24 09:19:24;;;;;;;6.85;4.80;;;;;;;26.86;43.39;94190.88;5018981;28;20531;-79
2022/05/24 09:21:53;;;;;;;8.00;4.65;;;;;;;26.16;44.40;94188.88;5029666;28;20921;-84
2022/05/24 09:24:40;;;;;;;11.00;5.50;;;;;;;26.13;44.53;94195.31;5019891;28;20232;-74
2022/05/24 09:27:15;;;;;;;8.00;4.97;;;;;;;26.12;44.81;94182.63;5017513;28;20216;-80
2022/05/24 09:30:00;;;;;;;8.68;5.85;;;;;;;26.09;44.95;94189.09;5026937;28;20195;-81
2022/05/24 09:32:39;;;;;;;7.05;4.95;;;;;;;25.76;45.87;94182.03;5021973;28;20227;-85
2022/05/24 09:35:19;;;;;;;7.57;5.53;;;;;;;25.50;45.92;94187.41;5024002;28;20188;-78
2022/05/24 09:38:03;;;;;;;9.50;5.72;;;;;;;26.22;45.32;94180.03;5025042;28;20200;-85
2022/05/24 09:40:33;;;;;;;8.05;5.70;;;;;;;25.96;45.22;94190.25;5028182;28;20299;-83
2022/05/24 09:43:18;;;;;;;7.68;5.72;;;;;;;26.84;44.13;94182.19;5016737;28;20207;-83
2022/05/24 09:45:47;;;;;;;10.23;4.90;;;;;;;27.65;43.57;94188.44;5017884;28;20234;-78
2022/05/24 09:48:23;;;;;;;8.15;5.35;;;;;;;26.52;44.08;94193.44;5029595;28;20210;-82
2022/05/24 09:50:52;;;;;;;10.20;5.50;;;;;;;26.18;44.30;94191.22;5026985;28;20722;-78
2022/05/24 09:53:22;;;;;;;8.45;5.50;;;;;;;26.53;43.56;94183.91;5029534;28;20224;-81
2022/05/24 09:55:51;;;;;;;11.88;5.78;;;;;;;27.47;42.70;94175.84;5028396;28;20575;-81
2022/05/24 09:58:23;;;;;;;7.22;5.30;;;;;;;28.28;41.00;94177.94;5018168;28;20219;-80
2022/05/24 10:00:53;;;;;;;8.93;5.80;;;;;;;28.24;40.53;94179.28;5029377;28;20199;-77
2022/05/24 10:03:26;;;;;;;10.70;5.97;;;;;;;28.02;42.06;94175.69;5027701;28;20227;-78
2022/05/24 10:06:08;;;;;;;7.43;4.97;;;;;;;27.60;42.78;94170.31;5013736;28;20209;-78
2022/05/24 10:08:38;;;;;;;8.38;5.75;;;;;;;27.54;42.80;94172.06;5024091;28;20239;-80
2022/05/24 10:11:07;;;;;;;9.63;5.15;;;;;;;27.81;42.65;94175.16;5029740;28;20231;-78
2022/05/24 10:13:40;;;;;;;10.05;5.18;;;;;;;28.73;40.73;94171.09;5032242;28;20223;-80
2022/05/24 10:16:17;;;;;;;10.18;5.72;;;;;;;28.96;40.19;94172.66;5023406;28;20241;-83
2022/05/24 10:19:04;;;;;;;9.02;6.20;;;;;;;29.74;39.12;94168.75;5027178;28;20184;-82
2022/05/24 10:21:37;;;;;;;7.10;5.10;;;;;;;29.48;38.97;94163.44;5030769;28;20271;-84
2022/05/24 10:24:23;;;;;;;6.03;5.13;;;;;;;29.91;40.03;94167.25;5025490;28;20220;-79
2022/05/24 10:26:57;;;;;;;7.57;5.30;;;;;;;29.18;40.97;94169.81;5032822;28;20220;-85
2022/05/24 10:29:39;;;;;;;9.95;5.40;;;;;;;27.83;41.73;94171.94;5030429;28;20204;-79
2022/05/24 10:38:17;;;;;;;8.32;5.28;;;;;;;27.86;42.80;94171.03;5019937;28;20203;-76
2022/05/24 10:40:49;;;;;;;10.82;6.82;;;;;;;27.50;43.17;94161.06;5030909;28;20642;-81
2022/05/24 10:43:33;;;;;;;6.63;5.28;;;;;;;27.52;42.67;94157.84;5032145;28;20248;-81
2022/05/24 10:46:08;;;;;;;7.82;5.35;;;;;;;28.00;42.26;94148.28;5030516;28;20228;-79
2022/05/24 10:48:39;;;;;;;8.82;5.85;;;;;;;27.80;42.66;94145.00;5031012;28;20212;-79
2022/05/24 10:51:13;;;;;;;7.93;5.53;;;;;;;26.96;43.79;94143.75;5019413;28;20213;-78
2022/05/24 10:53:48;;;;;;;7.82;5.32;;;;;;;26.94;45.53;94137.84;5021021;28;20631;-81
2022/05/24 10:56:27;;;;;;;6.55;4.90;;;;;;;28.10;42.72;94133.19;5029066;28;20196;-80
2022/05/24 10:59:02;;;;;;;9.45;5.07;;;;;;;28.25;42.79;94148.19;5025036;28;20200;-82
2022/05/24 11:01:34;;;;;;;7.65;5.18;;;;;;;28.67;42.28;94144.28;5021676;28;20195;-92
2022/05/24 11:04:08;;;;;;;7.63;5.40;;;;;;;28.83;41.87;94142.06;5031874;28;20311;-84
2022/05/24 11:06:39;;;;;;;8.25;5.53;;;;;;;28.22;42.01;94148.31;5031977;28;20224;-85
2022/05/24 11:09:11;;;;;;;7.75;4.90;;;;;;;28.49;42.68;94139.34;5031208;28;20247;-80
2022/05/24 11:11:44;;;;;;;6.30;4.60;;;;;;;29.07;41.61;94138.75;5032409;28;20224;-75
2022/05/24 11:14:16;;;;;;;7.82;5.05;;;;;;;29.36;40.60;94139.19;5031370;28;20215;-86
2022/05/24 11:16:47;;;;;;;10.48;5.10;;;;;;;29.45;41.61;94119.69;5019029;28;20197;-83
2022/05/24 11:19:16;;;;;;;7.47;5.13;;;;;;;29.00;40.70;94123.06;5028988;28;20295;-81
2022/05/24 11:21:48;;;;;;;7.03;5.50;;;;;;;28.34;41.67;94116.03;5030595;28;20203;-85
2022/05/24 11:24:21;;;;;;;11.57;5.78;;;;;;;27.81;42.36;94118.69;5011359;28;20232;-83
2022/05/24 11:26:53;;;;;;;12.32;5.53;;;;;;;27.25;43.60;94116.59;5027894;28;20201;-83
2022/05/24 11:29:28;;;;;;;8.65;5.53;;;;;;;27.31;43.94;94103.69;5032085;28;20220;-81
2022/05/24 11:32:02;;;;;;;7.10;5.20;;;;;;;27.70;43.46;94107.16;5030212;28;20246;-77
2022/05/24 11:34:32;;;;;;;5.93;5.00;;;;;;;27.81;42.42;94099.22;5031176;28;20211;-82
2022/05/24 11:37:06;;;;;;;7.28;5.20;;;;;;;27.52;43.48;94080.69;5031577;28;20221;-82
2022/05/24 11:39:37;;;;;;;7.72;5.28;;;;;;;28.55;42.19;94087.38;5034418;28;20317;-84
2022/05/24 11:42:24;;;;;;;10.48;6.03;;;;;;;29.22;41.96;94087.53;5032480;28;20219;-84
2022/05/24 11:44:52;;;;;;;7.72;5.13;;;;;;;29.20;41.00;94080.84;5050066;28;20228;-83
2022/05/24 11:47:52;;;;;;;8.00;5.70;;;;;;;29.64;39.87;94079.41;5041634;28;20232;-84
2022/05/24 11:50:46;;;;;;;6.82;6.03;;;;;;;29.75;40.03;94064.19;5019355;28;20228;-88
2022/05/24 11:53:36;;;;;;;10.77;5.57;;;;;;;29.90;39.69;94051.16;5031699;28;20200;-84
2022/05/24 11:56:19;;;;;;;6.47;5.20;;;;;;;29.89;40.35;94049.63;5032739;28;20568;-79
2022/05/24 11:58:59;;;;;;;7.15;5.47;;;;;;;29.55;39.89;94043.09;5026489;28;20200;-90
2022/05/24 12:01:40;;;;;;;9.20;5.63;;;;;;;29.78;40.06;94040.94;5037273;28;20189;-88
2022/05/24 12:10:44;;;;;;;10.15;5.72;;;;;;;29.05;41.13;94041.59;5026349;28;21064;-84
2022/05/24 12:13:54;;;;;;;7.57;5.60;;;;;;;29.59;40.06;94037.34;5028804;28;20283;-86
2022/05/24 12:16:38;;;;;;;8.00;5.78;;;;;;;29.74;39.48;94017.97;5021866;28;20201;-86
2022/05/24 12:19:07;;;;;;;10.32;5.53;;;;;;;28.73;41.12;94037.25;5024956;28;20378;-87
2022/05/24 12:22:01;;;;;;;7.80;5.50;;;;;;;29.12;41.24;94029.34;5022793;28;20265;-82
2022/05/24 12:24:49;;;;;;;7.70;5.32;;;;;;;29.49;40.53;94014.25;5020028;28;20231;-86